Meggett, SC

8:33 PM EST on March 02, 2015 (GMT -0500)
Bock Road | Change Station
CLOSE
Current Station
Personal Weather Station
Location: Hollywood, SC
Elevation: 39 ft
Nearby Weather Stations

Elev 39 ft 32.72 °N, 80.29 °W | Updated 7 minutes ago

Mostly Cloudy
Mostly Cloudy
57.0 °F
Feels Like 57.0 °F
N
2.2
Wind Variable Wind from SE

Today
High -- | Low -- °F
--% Chance of Precip.
Yesterday
High -- | Low -- °F
Precip. -- in
6:47 AM 6:19 PM
Waxing Gibbous, 94% visible
Pressure 30.25 in
Visibility 7.0 miles
Clouds Mostly Cloudy 3800 ft
Overcast 4700 ft
Dew Point 55 °F
Humidity 93%
Rainfall 0.00 in
Snow Depth Not available.
UV 0 out of 12
Pollen 9.00 out of 12
Air Quality Not available.
Flu Activity Not available.
METAR KJZI 030115Z AUTO 00000KT 7SM BKN038 OVC047 14/13 A3025 RMK A02 P000

More Conditions Fewer Conditions

Pressure 30.25 in
Visibility 7.0 miles
Clouds Mostly Cloudy 3800 ft
Overcast 4700 ft
Dew Point 55 °F
Humidity 93%
Rainfall 0.00 in
Snow Depth Not available.
UV 0 out of 12
Pollen 9.00 out of 12
Air Quality Not available.
Flu Activity Not available.
METAR KJZI 030115Z AUTO 00000KT 7SM BKN038 OVC047 14/13 A3025 RMK A02 P000

More Conditions Fewer Conditions

10-Day Weather Forecast

Almanac

Astronomy

Mar. 02, 2015 Rise Set
Actual Time
Civil Twilight
Nautical Twilight
Astronomical Twilight
Moon
Length of Visible Light
Length of Day
Tomorrow will be .
, % of the Moon is Illuminated

Today's Extremes

State Highs State Lows

Community

WunderPhotos

Upload Photos

1,802,021 photos uploaded!

WunderBlogs® & News

Nearby

Air Quality

  Air Quality AQ Index Pollutant
Not available.

Snow Depth

Station Depth Elevation

Earthquake Activity

City Distance Mag. Time & Date
Minimum magnitude displayed is 2.5.

Coastal Water Temperatures

Place Temperature

Nearby Weather Stations